createdAt,value
2023-04-14T00:02:16.006Z,11.41
2023-04-14T00:04:43.880Z,11.67
2023-04-14T00:07:13.138Z,11.27
2023-04-14T00:09:42.005Z,10.87
2023-04-14T00:12:09.718Z,11.35
2023-04-14T00:14:37.429Z,10.91
2023-04-14T00:17:05.171Z,11.53
2023-04-14T00:19:34.295Z,11.13
2023-04-14T00:22:02.131Z,10.98
2023-04-14T00:24:29.878Z,10.87
2023-04-14T00:26:57.974Z,10.88
2023-04-14T00:29:25.869Z,10.98
2023-04-14T00:31:53.576Z,10.94
2023-04-14T00:34:21.285Z,10.94
2023-04-14T00:36:50.370Z,10.64
2023-04-14T00:39:18.119Z,10.51
2023-04-14T00:41:45.963Z,11.39
2023-04-14T00:44:13.910Z,11.19
2023-04-14T00:46:42.813Z,10.63
2023-04-14T00:49:11.296Z,10.53
2023-04-14T00:51:39.291Z,10.17
2023-04-14T00:54:09.656Z,9.90
2023-04-14T00:56:37.501Z,10.43
2023-04-14T00:59:07.539Z,10.52
2023-04-14T01:01:36.635Z,10.85
2023-04-14T01:04:04.634Z,11.07
2023-04-14T01:06:33.068Z,11.02
2023-04-14T01:09:01.833Z,11.09
2023-04-14T01:11:38.285Z,11.19
2023-04-14T01:14:12.578Z,11.20
2023-04-14T01:16:42.728Z,10.63
2023-04-14T01:19:31.859Z,11.35
2023-04-14T01:22:04.625Z,11.14
2023-04-14T01:24:41.925Z,10.76
2023-04-14T01:27:32.017Z,10.59
2023-04-14T01:30:19.678Z,10.33
2023-04-14T01:32:50.838Z,10.81
2023-04-14T01:35:22.012Z,10.81
2023-04-14T01:37:55.549Z,10.76
2023-04-14T01:40:25.983Z,10.77
2023-04-14T01:42:59.462Z,10.68
2023-04-14T01:45:30.005Z,11.15
2023-04-14T01:48:00.518Z,10.86
2023-04-14T01:50:29.596Z,10.95
2023-04-14T01:52:59.132Z,10.48
2023-04-14T01:55:29.650Z,10.48
2023-04-14T01:57:58.587Z,10.76
2023-04-14T02:00:27.204Z,10.96
2023-04-14T02:02:56.428Z,10.72
2023-04-14T02:05:27.697Z,10.71
2023-04-14T02:07:56.604Z,10.73
2023-04-14T02:10:25.833Z,11.09
2023-04-14T02:12:58.198Z,10.32
2023-04-14T02:15:28.566Z,9.70
2023-04-14T02:17:58.247Z,9.62
2023-04-14T02:20:29.035Z,9.40
2023-04-14T02:22:56.894Z,9.68
2023-04-14T02:25:27.363Z,10.45
2023-04-14T02:27:57.397Z,10.25
2023-04-14T02:30:30.483Z,10.90
2023-04-14T02:33:02.966Z,11.06
2023-04-14T02:35:38.437Z,10.98
2023-04-14T02:38:09.447Z,10.88
2023-04-14T02:40:42.197Z,10.13
2023-04-14T02:43:14.471Z,10.20
2023-04-14T02:45:46.989Z,9.89
2023-04-14T02:48:17.437Z,9.87
2023-04-14T02:50:49.312Z,9.92
2023-04-14T02:53:21.622Z,9.52
2023-04-14T02:55:51.452Z,9.84
2023-04-14T02:58:19.466Z,10.11
2023-04-14T03:00:48.016Z,10.40
2023-04-14T03:03:17.025Z,10.83
2023-04-14T03:05:48.629Z,10.61
2023-04-14T03:08:18.011Z,10.79
2023-04-14T03:10:47.233Z,11.03
2023-04-14T03:13:16.398Z,10.99
2023-04-14T03:15:46.548Z,10.58
2023-04-14T03:18:15.780Z,10.60
2023-04-14T03:20:45.753Z,10.73
2023-04-14T03:23:18.926Z,10.81
2023-04-14T03:25:48.784Z,11.17
2023-04-14T03:28:20.316Z,11.01
2023-04-14T03:30:54.204Z,11.09
2023-04-14T03:33:25.984Z,10.28
2023-04-14T03:35:57.089Z,9.25
2023-04-14T03:38:28.213Z,9.34
2023-04-14T03:41:01.100Z,9.42
2023-04-14T03:43:29.363Z,9.55
2023-04-14T03:45:57.551Z,9.92
2023-04-14T03:48:27.347Z,9.66
2023-04-14T03:50:57.778Z,9.58
2023-04-14T03:53:27.989Z,10.11
2023-04-14T03:55:59.806Z,9.94
2023-04-14T03:58:29.573Z,10.30
2023-04-14T04:00:58.461Z,10.06
2023-04-14T04:03:27.865Z,10.36
2023-04-14T04:05:56.057Z,10.30
2023-04-14T04:08:24.771Z,11.05
2023-04-14T04:10:56.071Z,10.72
2023-04-14T04:13:25.299Z,10.62
2023-04-14T04:15:53.690Z,10.84
2023-04-14T04:18:23.740Z,10.28
2023-04-14T04:20:51.828Z,10.11
2023-04-14T04:23:22.740Z,9.73
2023-04-14T04:25:51.152Z,10.19
2023-04-14T04:28:20.649Z,9.78
2023-04-14T04:30:49.933Z,10.36
2023-04-14T04:33:18.565Z,10.06
2023-04-14T04:35:47.843Z,10.18
2023-04-14T04:38:15.635Z,10.50
2023-04-14T04:40:43.390Z,10.38
2023-04-14T04:43:11.110Z,10.36
2023-04-14T04:45:51.183Z,10.77
2023-04-14T04:48:18.876Z,10.13
2023-04-14T04:50:46.563Z,10.29
2023-04-14T04:53:14.291Z,10.99
2023-04-14T04:55:42.277Z,10.91
2023-04-14T04:58:10.462Z,10.94
2023-04-14T05:00:38.169Z,10.74
2023-04-14T05:03:07.313Z,10.46
2023-04-14T05:05:37.105Z,10.66
2023-04-14T05:08:05.146Z,10.58
2023-04-14T05:10:35.342Z,10.59
2023-04-14T05:13:03.634Z,10.36
2023-04-14T05:15:31.843Z,10.39
2023-04-14T05:18:01.616Z,10.33
2023-04-14T05:20:32.153Z,10.57
2023-04-14T05:23:00.740Z,10.53
2023-04-14T05:25:28.478Z,10.46
2023-04-14T05:27:56.260Z,10.24
2023-04-14T05:30:24.573Z,10.23
2023-04-14T05:32:52.284Z,9.96
2023-04-14T05:35:20.019Z,10.15
2023-04-14T05:37:49.084Z,10.56
2023-04-14T05:40:16.801Z,10.22
2023-04-14T05:42:44.510Z,10.07
2023-04-14T05:45:12.571Z,10.29
2023-04-14T05:47:40.778Z,10.19
2023-04-14T05:50:09.461Z,10.52
2023-04-14T05:52:37.154Z,10.65
2023-04-14T05:55:07.118Z,11.30
2023-04-14T05:57:35.011Z,11.92
2023-04-14T06:00:02.830Z,11.80
2023-04-14T06:02:30.684Z,11.95
2023-04-14T06:04:59.772Z,11.93
2023-04-14T06:07:27.640Z,12.22
2023-04-14T06:09:55.704Z,11.72
2023-04-14T06:12:24.778Z,12.12
2023-04-14T06:14:52.563Z,11.58
2023-04-14T06:17:21.142Z,11.07
2023-04-14T06:19:49.167Z,11.27
2023-04-14T06:22:19.783Z,11.16
2023-04-14T06:24:47.612Z,10.95
2023-04-14T06:27:15.791Z,11.25
2023-04-14T06:29:44.852Z,11.75
2023-04-14T06:32:12.738Z,11.35
2023-04-14T06:34:40.635Z,11.71
2023-04-14T06:37:08.354Z,11.73
2023-04-14T06:39:36.309Z,11.56
2023-04-14T06:42:04.060Z,11.55
2023-04-14T06:44:31.770Z,12.11
2023-04-14T06:47:00.846Z,11.68
2023-04-14T06:49:29.398Z,12.52
2023-04-14T06:51:57.153Z,11.45
2023-04-14T06:54:24.990Z,11.89
2023-04-14T06:56:52.739Z,11.68
2023-04-14T06:59:21.165Z,12.40
2023-04-14T07:01:48.997Z,12.86
2023-04-14T07:04:19.296Z,11.99
2023-04-14T07:06:47.145Z,12.10
2023-04-14T07:09:14.966Z,12.40
2023-04-14T07:11:42.795Z,12.94
2023-04-14T07:14:10.506Z,13.11
2023-04-14T07:16:38.191Z,13.06
2023-04-14T07:19:05.909Z,13.49
2023-04-14T07:21:35.035Z,13.61
2023-04-14T07:24:02.965Z,13.34
2023-04-14T07:26:30.911Z,13.37
2023-04-14T07:28:58.639Z,12.75
2023-04-14T07:31:26.673Z,13.37
2023-04-14T07:33:54.436Z,13.25
2023-04-14T07:36:22.217Z,13.73
2023-04-14T07:38:52.091Z,13.54
2023-04-14T07:41:21.197Z,13.30
2023-04-14T07:43:48.915Z,12.38
2023-04-14T07:46:16.692Z,13.02
2023-04-14T07:48:44.617Z,13.64
2023-04-14T07:51:12.566Z,13.52
2023-04-14T07:53:43.244Z,13.70
2023-04-14T07:56:12.786Z,14.04
2023-04-14T07:58:40.710Z,13.16
2023-04-14T08:01:08.911Z,12.78
2023-04-14T08:03:37.895Z,13.28
2023-04-14T08:06:06.879Z,13.35
2023-04-14T08:08:34.701Z,13.40
2023-04-14T08:11:02.492Z,13.52
2023-04-14T08:13:31.606Z,13.24
2023-04-14T08:15:59.375Z,13.11
2023-04-14T08:18:27.421Z,13.49
2023-04-14T08:20:55.114Z,13.74
2023-04-14T08:23:22.911Z,12.60
2023-04-14T08:25:50.713Z,13.38
2023-04-14T08:28:18.430Z,13.39
2023-04-14T08:30:47.744Z,13.60
2023-04-14T08:33:15.858Z,13.07
2023-04-14T08:35:44.027Z,13.76
2023-04-14T08:38:12.067Z,12.85
2023-04-14T08:40:41.529Z,13.30
2023-04-14T08:43:09.452Z,13.04
2023-04-14T08:45:37.862Z,13.18
2023-04-14T08:48:07.147Z,13.38
2023-04-14T08:50:38.450Z,13.26
2023-04-14T08:53:10.791Z,13.34
2023-04-14T08:55:41.711Z,13.18
2023-04-14T08:58:11.430Z,13.19
2023-04-14T09:00:40.052Z,13.85
2023-04-14T09:03:10.040Z,13.13
2023-04-14T09:05:38.456Z,13.53
2023-04-14T09:08:06.286Z,13.42
2023-04-14T09:10:35.694Z,13.31
2023-04-14T09:13:05.509Z,13.46
2023-04-14T09:15:33.404Z,13.66
2023-04-14T09:18:01.293Z,13.96
2023-04-14T09:20:40.346Z,13.46
2023-04-14T09:23:10.087Z,12.88
2023-04-14T09:25:39.611Z,13.20
2023-04-14T09:28:07.461Z,13.15
2023-04-14T09:30:35.339Z,13.60
2023-04-14T09:33:05.948Z,13.59
2023-04-14T09:35:47.359Z,13.66
2023-04-14T09:38:15.355Z,13.50
2023-04-14T09:40:44.217Z,13.57
2023-04-14T09:43:25.255Z,13.64
2023-04-14T09:45:53.129Z,13.57
2023-04-14T09:48:21.267Z,13.32
2023-04-14T09:51:00.929Z,13.68
2023-04-14T09:53:30.300Z,12.49
2023-04-14T09:55:59.753Z,13.09
2023-04-14T09:58:31.595Z,13.42
2023-04-14T10:01:00.495Z,13.50
2023-04-14T10:03:36.067Z,13.55
2023-04-14T10:06:07.717Z,13.59
2023-04-14T10:08:37.692Z,13.84
2023-04-14T10:11:19.235Z,13.52
2023-04-14T10:13:47.852Z,13.04
2023-04-14T10:16:15.968Z,13.08
2023-04-14T10:18:44.193Z,13.19
2023-04-14T10:21:14.808Z,13.49
2023-04-14T10:23:43.374Z,13.63
2023-04-14T10:26:12.740Z,13.88
2023-04-14T10:28:43.273Z,13.83
2023-04-14T10:31:16.054Z,12.99
2023-04-14T10:33:44.220Z,13.28
2023-04-14T10:36:13.493Z,13.56
2023-04-14T10:38:43.494Z,13.67
2023-04-14T10:41:12.886Z,13.92
2023-04-14T10:43:41.714Z,13.50
2023-04-14T10:46:11.080Z,13.11
2023-04-14T10:48:41.329Z,12.70
2023-04-14T10:51:10.788Z,13.21
2023-04-14T10:53:47.490Z,12.90
2023-04-14T10:56:15.333Z,13.25
2023-04-14T10:58:54.664Z,13.11
2023-04-14T11:01:24.117Z,13.17
2023-04-14T11:03:52.037Z,13.23
2023-04-14T11:06:52.813Z,13.01
2023-04-14T11:09:34.501Z,13.15
2023-04-14T11:12:07.389Z,13.00
2023-04-14T11:14:36.985Z,12.76
2023-04-14T11:17:05.953Z,12.94
2023-04-14T11:19:34.311Z,13.07
2023-04-14T11:22:02.041Z,12.67
2023-04-14T11:24:32.274Z,12.76
2023-04-14T11:27:00.159Z,13.23
2023-04-14T11:29:27.995Z,12.51
2023-04-14T11:32:02.862Z,12.52
2023-04-14T11:34:30.729Z,12.60
2023-04-14T11:36:58.518Z,12.11
2023-04-14T11:39:26.432Z,12.28
2023-04-14T11:41:56.044Z,12.37
2023-04-14T11:44:23.861Z,12.79
2023-04-14T11:46:51.651Z,12.57
2023-04-14T11:49:20.626Z,13.05
2023-04-14T11:51:49.918Z,13.36
2023-04-14T11:54:18.539Z,13.42
2023-04-14T11:56:46.418Z,12.76
2023-04-14T11:59:15.489Z,12.89
2023-04-14T12:01:43.354Z,12.55
2023-04-14T12:04:12.402Z,12.66
2023-04-14T12:06:40.685Z,12.88
2023-04-14T12:09:10.125Z,12.80
2023-04-14T12:11:38.161Z,12.19
2023-04-14T12:14:06.155Z,11.98
2023-04-14T12:16:35.491Z,12.24
2023-04-14T12:19:03.591Z,12.57
2023-04-14T12:21:31.864Z,12.57
2023-04-14T12:23:59.620Z,12.75
2023-04-14T12:26:28.235Z,12.77
2023-04-14T12:28:59.062Z,12.86
2023-04-14T12:31:31.168Z,12.44
2023-04-14T12:34:05.357Z,12.48
2023-04-14T12:36:48.896Z,12.58
2023-04-14T12:39:18.179Z,13.09
2023-04-14T12:41:46.912Z,12.53
2023-04-14T12:44:16.529Z,12.59
2023-04-14T12:46:49.857Z,12.02
2023-04-14T12:49:42.839Z,11.81
2023-04-14T12:52:10.550Z,11.58
2023-04-14T12:54:52.222Z,12.08
2023-04-14T12:57:21.747Z,12.21
2023-04-14T12:59:49.425Z,12.21
2023-04-14T13:02:17.928Z,11.93
2023-04-14T13:04:47.145Z,11.56
2023-04-14T13:07:14.926Z,11.46
2023-04-14T13:09:43.653Z,11.36
2023-04-14T13:12:11.397Z,11.82
2023-04-14T13:14:39.437Z,11.26
2023-04-14T13:17:07.348Z,10.97
2023-04-14T13:19:35.101Z,11.13
2023-04-14T13:22:04.163Z,11.26
2023-04-14T13:24:31.888Z,10.68
2023-04-14T13:26:59.605Z,10.98
2023-04-14T13:29:27.376Z,11.24
2023-04-14T13:31:55.092Z,11.76
2023-04-14T13:34:22.836Z,10.68
2023-04-14T13:36:50.657Z,10.87
2023-04-14T13:39:20.220Z,11.34
2023-04-14T13:41:47.951Z,11.44
2023-04-14T13:44:15.707Z,10.20
2023-04-14T13:46:44.712Z,10.68
2023-04-14T13:49:12.883Z,10.68
2023-04-14T13:51:40.991Z,9.86
2023-04-14T13:54:08.707Z,10.28
2023-04-14T13:56:37.812Z,11.11
2023-04-14T13:59:05.670Z,10.70
2023-04-14T14:01:33.994Z,10.88
2023-04-14T14:04:01.994Z,10.83
2023-04-14T14:06:29.967Z,10.89
2023-04-14T14:09:05.286Z,10.68
2023-04-14T14:11:34.459Z,10.96
2023-04-14T14:14:04.019Z,10.04
2023-04-14T14:16:37.126Z,10.01
2023-04-14T14:19:07.295Z,10.26
2023-04-14T14:21:35.709Z,10.35
2023-04-14T14:24:03.997Z,10.53
2023-04-14T14:26:31.978Z,10.85
2023-04-14T14:28:59.729Z,10.87
2023-04-14T14:31:29.068Z,11.06
2023-04-14T14:33:57.601Z,10.67
2023-04-14T14:36:26.680Z,10.99
2023-04-14T14:38:54.412Z,10.10
2023-04-14T14:41:22.431Z,10.11
2023-04-14T14:43:51.063Z,9.71
2023-04-14T14:46:18.965Z,10.46
2023-04-14T14:48:48.138Z,10.18
2023-04-14T14:51:15.964Z,10.49
2023-04-14T14:53:43.647Z,10.54
2023-04-14T14:56:11.621Z,10.18
2023-04-14T14:58:39.551Z,10.78
2023-04-14T15:01:07.698Z,10.22
2023-04-14T15:03:35.741Z,10.13
2023-04-14T15:06:05.284Z,10.34
2023-04-14T15:08:33.076Z,9.77
2023-04-14T15:11:00.852Z,10.07
2023-04-14T15:13:29.412Z,10.13
2023-04-14T15:15:57.154Z,9.90
2023-04-14T15:18:24.914Z,10.00
2023-04-14T15:20:54.238Z,10.86
2023-04-14T15:23:23.372Z,10.62
2023-04-14T15:25:51.140Z,10.80
2023-04-14T15:28:18.924Z,10.49
2023-04-14T15:30:46.732Z,9.92
2023-04-14T15:33:14.449Z,10.28
2023-04-14T15:35:42.183Z,10.35
2023-04-14T15:38:09.900Z,10.69
2023-04-14T15:40:40.631Z,10.52
2023-04-14T15:43:08.349Z,11.16
2023-04-14T15:45:36.141Z,10.96
2023-04-14T15:48:04.034Z,10.63
2023-04-14T15:50:32.171Z,10.58
2023-04-14T15:52:59.854Z,10.82
2023-04-14T15:55:28.416Z,10.58
2023-04-14T15:57:57.479Z,10.70
2023-04-14T16:00:26.037Z,10.92
2023-04-14T16:02:53.812Z,10.79
2023-04-14T16:05:21.756Z,10.57
2023-04-14T16:07:49.520Z,10.76
2023-04-14T16:10:17.290Z,10.73
2023-04-14T16:12:44.997Z,11.18
2023-04-14T16:15:14.183Z,10.61
2023-04-14T16:17:42.165Z,10.93
2023-04-14T16:20:11.432Z,9.78
2023-04-14T16:22:39.276Z,10.76
2023-04-14T16:25:08.109Z,10.52
2023-04-14T16:27:35.849Z,10.50
2023-04-14T16:30:03.815Z,10.68
2023-04-14T16:32:32.901Z,10.62
2023-04-14T16:35:01.105Z,10.83
2023-04-14T16:37:28.883Z,10.92
2023-04-14T16:39:56.936Z,10.82
2023-04-14T16:42:25.259Z,10.81
2023-04-14T16:44:53.450Z,9.86
2023-04-14T16:47:22.003Z,10.56
2023-04-14T16:49:51.685Z,10.27
2023-04-14T16:52:19.800Z,10.10
2023-04-14T16:54:47.533Z,9.82
2023-04-14T16:57:15.453Z,9.48
2023-04-14T16:59:43.148Z,10.18
2023-04-14T17:02:11.188Z,10.03
2023-04-14T17:04:39.228Z,10.25
2023-04-14T17:07:08.381Z,10.38
2023-04-14T17:09:36.253Z,10.48
2023-04-14T17:12:03.967Z,10.09
2023-04-14T17:14:32.528Z,10.55
2023-04-14T17:17:00.420Z,10.30
2023-04-14T17:19:28.410Z,11.11
2023-04-14T17:21:56.176Z,10.26
2023-04-14T17:24:25.302Z,9.97
2023-04-14T17:26:53.086Z,9.95
2023-04-14T17:29:20.793Z,10.05
2023-04-14T17:31:48.614Z,10.53
2023-04-14T17:34:18.484Z,10.87
2023-04-14T17:36:47.305Z,10.77
2023-04-14T17:39:15.280Z,10.50
2023-04-14T17:41:44.630Z,10.34
2023-04-14T17:44:12.689Z,10.93
2023-04-14T17:46:40.367Z,11.20
2023-04-14T17:49:08.335Z,11.17
2023-04-14T17:51:36.145Z,10.50
2023-04-14T17:54:05.258Z,10.78
2023-04-14T17:56:33.014Z,10.69
2023-04-14T17:59:02.374Z,10.92
2023-04-14T18:01:30.128Z,10.86
2023-04-14T18:04:00.326Z,11.15
2023-04-14T18:06:28.685Z,11.18
2023-04-14T18:08:56.396Z,11.67
2023-04-14T18:11:24.489Z,11.27
2023-04-14T18:13:52.404Z,11.46
2023-04-14T18:16:22.189Z,11.64
2023-04-14T18:18:50.152Z,11.49
2023-04-14T18:21:18.688Z,11.60
2023-04-14T18:24:47.858Z,11.13
2023-04-14T18:26:34.072Z,12.00
2023-04-14T18:29:02.040Z,12.01
2023-04-14T18:31:31.523Z,11.88
2023-04-14T18:34:03.769Z,11.88
2023-04-14T18:36:32.558Z,12.08
2023-04-14T18:39:01.380Z,11.42
2023-04-14T18:41:29.475Z,12.00
2023-04-14T18:43:57.516Z,11.82
2023-04-14T18:46:25.394Z,12.09
2023-04-14T18:48:55.343Z,11.95
2023-04-14T18:51:23.092Z,11.86
2023-04-14T18:53:50.821Z,12.05
2023-04-14T18:56:18.637Z,12.06
2023-04-14T18:58:46.581Z,11.85
2023-04-14T19:01:14.328Z,12.24
2023-04-14T19:03:42.125Z,12.12
2023-04-14T19:06:11.442Z,12.19
2023-04-14T19:08:39.158Z,12.21
2023-04-14T19:11:07.542Z,12.18
2023-04-14T19:13:35.596Z,12.50
2023-04-14T19:16:08.436Z,12.66
2023-04-14T19:18:37.133Z,12.98
2023-04-14T19:21:05.033Z,12.76
2023-04-14T19:23:34.142Z,12.19
2023-04-14T19:26:02.433Z,12.57
2023-04-14T19:28:30.630Z,12.27
2023-04-14T19:30:58.332Z,12.63
2023-04-14T19:33:26.968Z,12.31
2023-04-14T19:35:54.752Z,12.27
2023-04-14T19:38:22.479Z,12.17
2023-04-14T19:40:52.816Z,12.44
2023-04-14T19:43:20.508Z,12.24
2023-04-14T19:45:52.503Z,12.11
2023-04-14T19:48:24.017Z,12.20
2023-04-14T19:50:54.506Z,12.46
2023-04-14T19:53:23.394Z,12.46
2023-04-14T19:55:53.621Z,12.05
2023-04-14T19:58:21.836Z,12.29
2023-04-14T20:00:51.598Z,12.00
2023-04-14T20:03:20.294Z,12.03
2023-04-14T20:05:51.779Z,11.46
2023-04-14T20:08:20.337Z,12.19
2023-04-14T20:10:51.153Z,11.82
2023-04-14T20:13:21.500Z,12.00
2023-04-14T20:15:49.630Z,11.72
2023-04-14T20:18:18.343Z,11.98
2023-04-14T20:20:46.976Z,12.68
2023-04-14T20:23:14.661Z,12.69
2023-04-14T20:25:44.055Z,12.37
2023-04-14T20:28:11.871Z,12.59
2023-04-14T20:30:41.713Z,12.31
2023-04-14T20:33:09.453Z,12.25
2023-04-14T20:35:39.297Z,11.80
2023-04-14T20:38:07.506Z,12.63
2023-04-14T20:40:35.434Z,13.21
2023-04-14T20:43:03.741Z,13.06
2023-04-14T20:45:32.142Z,12.75
2023-04-14T20:48:02.008Z,12.20
2023-04-14T20:50:30.055Z,12.86
2023-04-14T20:52:57.760Z,12.11
2023-04-14T20:55:26.167Z,11.96
2023-04-14T20:57:54.479Z,11.39
2023-04-14T21:00:22.203Z,11.10
2023-04-14T21:02:51.833Z,11.24
2023-04-14T21:05:21.968Z,11.57
2023-04-14T21:07:49.707Z,11.30
2023-04-14T21:10:17.442Z,11.76
2023-04-14T21:14:54.143Z,11.62
2023-04-14T21:15:53.036Z,11.15
2023-04-14T21:18:21.711Z,11.57
2023-04-14T21:20:50.815Z,11.86
2023-04-14T21:23:18.891Z,11.42
2023-04-14T21:25:46.859Z,12.03
2023-04-14T21:28:14.676Z,11.38
2023-04-14T21:30:42.552Z,11.75
2023-04-14T21:33:10.802Z,11.76
2023-04-14T21:35:38.713Z,12.13
2023-04-14T21:38:08.057Z,12.24
2023-04-14T21:40:35.840Z,12.56
2023-04-14T21:43:03.527Z,11.94
2023-04-14T21:45:31.336Z,12.09
2023-04-14T21:47:59.126Z,11.80
2023-04-14T21:50:26.908Z,11.62
2023-04-14T21:52:54.663Z,11.43
2023-04-14T21:55:23.767Z,11.42
2023-04-14T21:57:52.428Z,11.84
2023-04-14T22:00:20.546Z,12.07
2023-04-14T22:02:49.623Z,12.28
2023-04-14T22:05:17.570Z,11.90
2023-04-14T22:07:46.375Z,11.97
2023-04-14T22:10:14.643Z,11.81
2023-04-14T22:12:44.672Z,11.22
2023-04-14T22:15:12.502Z,11.26
2023-04-14T22:17:40.226Z,11.83
2023-04-14T22:20:09.635Z,11.53
2023-04-14T22:22:37.466Z,11.58
2023-04-14T22:25:05.733Z,12.12
2023-04-14T22:27:34.440Z,11.76
2023-04-14T22:30:04.947Z,11.68
2023-04-14T22:32:33.184Z,11.20
2023-04-14T22:35:01.969Z,11.71
2023-04-14T22:37:29.673Z,11.61
2023-04-14T22:39:57.711Z,11.61
2023-04-14T22:42:26.048Z,11.09
2023-04-14T22:44:54.362Z,10.97
2023-04-14T22:47:23.563Z,11.06
2023-04-14T22:49:51.762Z,10.87
2023-04-14T22:52:19.821Z,11.41
2023-04-14T22:54:48.647Z,11.42
2023-04-14T22:57:16.492Z,11.47
2023-04-14T22:59:44.187Z,11.62
2023-04-14T23:02:12.697Z,11.56
2023-04-14T23:04:42.133Z,11.89
2023-04-14T23:07:09.946Z,11.29
2023-04-14T23:09:37.688Z,11.27
2023-04-14T23:12:06.233Z,11.30
2023-04-14T23:14:33.985Z,11.78
2023-04-14T23:17:01.789Z,11.61
2023-04-14T23:19:29.517Z,11.67
2023-04-14T23:21:58.620Z,11.96
2023-04-14T23:24:26.743Z,10.87
2023-04-14T23:26:54.461Z,10.72
2023-04-14T23:29:22.188Z,10.77
2023-04-14T23:31:50.041Z,11.50
2023-04-14T23:34:17.793Z,11.26
2023-04-14T23:36:47.264Z,11.69
2023-04-14T23:39:16.349Z,11.43
2023-04-14T23:41:44.047Z,11.76
2023-04-14T23:44:11.728Z,12.24
2023-04-14T23:46:40.681Z,11.67
2023-04-14T23:49:23.562Z,11.48
2023-04-14T23:51:52.772Z,11.28
2023-04-14T23:54:21.866Z,11.43
2023-04-14T23:56:49.591Z,10.87
2023-04-14T23:59:17.671Z,10.55
